WetterOnline ( https://www.wetteronline.de )

Wetter aktuell Oberstdorf

Aktuelles Wetter: Oberstdorf (812m)

6-stündlich | Neueste Meldungen
Ortszeit Temperatur Wetter
Di, 11.05. 14:00 15.8° C bedeckt
Di, 11.05. 8:00 11.9° C bedeckt
Di, 11.05. 2:00 9.2° C bewölkt
Mo, 10.05. 20:00 18.6° C wolkig
Mo, 10.05. 14:00 23.0° C wolkig
Mo, 10.05. 8:00 20.9° C wolkig
Mo, 10.05. 2:00 17.7° C bedeckt
So, 09.05. 20:00 19.1° C wolkig
Ortszeit Temperatur Wetter
Di, 11.05. 18:30 10.2° C Regen
Di, 11.05. 18:20 10.2° C Regen
Di, 11.05. 18:10 10.5° C Regen
Di, 11.05. 18:00 10.7° C leichter Regen
Di, 11.05. 17:50 10.7° C leichter Regen
Di, 11.05. 17:40 11.4° C leichter Regen
Di, 11.05. 17:30 11.9° C leichter Regen
Di, 11.05. 17:00 12.8° C leichter Regen
Ortszeit Relative Feuchte Sichtweite
Di, 11.05. 14:00 68% >70 km
Di, 11.05. 8:00 82% 60 km
Di, 11.05. 2:00 88% 60 km
Mo, 10.05. 20:00 51% >70 km
Mo, 10.05. 14:00 32% 45 km
Mo, 10.05. 8:00 30% >70 km
Mo, 10.05. 2:00 34% >70 km
So, 09.05. 20:00 35% >70 km
Ortszeit Relative Feuchte Sichtweite
Di, 11.05. 18:30 83% 7 km
Di, 11.05. 18:20 83% -
Di, 11.05. 18:10 79% -
Di, 11.05. 18:00 78% 10 km
Di, 11.05. 17:50 78% -
Di, 11.05. 17:40 76% -
Di, 11.05. 17:30 80% 55 km
Di, 11.05. 17:00 80% 35 km
Ortszeit Niederschlagsmenge Niederschlagsart
Di, 11.05. 14:00 0.0 l/m2 in 6 Std. -
Di, 11.05. 8:00 0.0 l/m2 in 12 Std. -
Di, 11.05. 2:00 0.0 l/m2 in 6 Std. -
Mo, 10.05. 20:00 0.0 l/m2 in 12 Std. -
Mo, 10.05. 14:00 0.0 l/m2 in 6 Std. -
Mo, 10.05. 8:00 0.0 l/m2 in 12 Std. -
Mo, 10.05. 2:00 0.0 l/m2 in 6 Std. -
So, 09.05. 20:00 0.0 l/m2 in 12 Std. -
Ortszeit Niederschlagsmenge Niederschlagsart
Di, 11.05. 18:30 1.9 l/m2 in 1 Std. -
Di, 11.05. 18:20 keine Meldung -
Di, 11.05. 18:10 keine Meldung -
Di, 11.05. 18:00 0.6 l/m2 in 1 Std. Regen
Di, 11.05. 17:50 keine Meldung -
Di, 11.05. 17:40 keine Meldung -
Di, 11.05. 17:30 0.1 l/m2 in 1 Std. -
Di, 11.05. 17:00 0.1 l/m2 in 1 Std. Regen
Ortszeit Stärke Spitze Richtung
km/h Bft. km/h Grad Sektor
Di, 11.05. 14:00 13 3 24 300° NW
Di, 11.05. 8:00 4 1 11 340° N
Di, 11.05. 2:00 6 1 19 150° SO
Mo, 10.05. 20:00 7 2 32 360° N
Mo, 10.05. 14:00 14 3 40 130° SO
Mo, 10.05. 8:00 22 4 43 180° S
Mo, 10.05. 2:00 17 3 43 190° S
So, 09.05. 20:00 14 3 36 220° SW
Ortszeit Stärke Spitze Richtung
km/h Bft. km/h Grad Sektor
Di, 11.05. 18:30 7 2 29 300° NW
Di, 11.05. 18:20 7 2 - 300° NW
Di, 11.05. 18:10 9 2 - 310° NW
Di, 11.05. 18:00 22 4 36 300° NW
Di, 11.05. 17:50 22 4 - 300° NW
Di, 11.05. 17:40 9 2 - 330° NW
Di, 11.05. 17:30 9 2 24 280° W
Di, 11.05. 17:00 6 1 19 290° W
Ortszeit Untergrenze Bedeckung Gattung
total tief tief mittel hoch
Di, 11.05. 14:00 810 m 8/8 8/8 - - -
Di, 11.05. 8:00 3900 m 8/8 8/8 - - -
Di, 11.05. 2:00 600 m 7/8 6/8 - - -
Mo, 10.05. 20:00 3000 m 6/8 2/8 - - -
Mo, 10.05. 14:00 2700 m 6/8 5/8 - - -
Mo, 10.05. 8:00 9000 m 8/8 0/8 - - -
Mo, 10.05. 2:00 6900 m 8/8 8/8 - - -
So, 09.05. 20:00 7200 m 7/8 0/8 - - -
Ortszeit Bedeckungsgrad in Achtel und Wolkenuntergrenze
Di, 11.05. 18:30 1(510m) 7(1020m) 8(1260m)
Di, 11.05. 18:20 1(510m) 7(1020m) 8(1260m)
Di, 11.05. 18:10 4(600m) 6(900m) 8(1080m)
Di, 11.05. 18:00 6(570m) 7(930m)
Di, 11.05. 17:50 6(570m) 7(930m)
Di, 11.05. 17:40 5(570m) 8(900m)
Di, 11.05. 17:30 4(690m) 8(900m)
Di, 11.05. 17:00 7(720m) 8(840m)
Ortszeit Stationsdruck (hPa) Tendenz (hPa in 3 Std.)
Di, 11.05. 14:00 915 + 0,6
Di, 11.05. 8:00 915 - 1,1
Di, 11.05. 2:00 917 - 0,2
Mo, 10.05. 20:00 916 - 0,4
Mo, 10.05. 14:00 917 - 0,2
Mo, 10.05. 8:00 918 + 0,6
Mo, 10.05. 2:00 918 + 0,5
So, 09.05. 20:00 917 + 0,1
Ortszeit Stationsdruck (hPa) Tendenz (hPa in 3 Std.)
Di, 11.05. 18:30 918 + 2,5
Di, 11.05. 18:20 918 keine Meldung
Di, 11.05. 18:10 918 keine Meldung
Di, 11.05. 18:00 917 + 2,5
Di, 11.05. 17:50 917 keine Meldung
Di, 11.05. 17:40 917 keine Meldung
Di, 11.05. 17:30 917 + 2,0
Di, 11.05. 17:00 916 + 1,6
Ortszeit Schneehöhe (cm)
Di, 11.05. 14:00 0
Di, 11.05. 8:00 0
Di, 11.05. 2:00 0
Mo, 10.05. 20:00 0
Mo, 10.05. 14:00 0
Mo, 10.05. 8:00 0
Mo, 10.05. 2:00 0
So, 09.05. 20:00 0
Ortszeit Schneehöhe (cm)
Di, 11.05. 18:30 0
Di, 11.05. 18:20 0
Di, 11.05. 18:10 0
Di, 11.05. 18:00 0
Di, 11.05. 17:50 0
Di, 11.05. 17:40 0
Di, 11.05. 17:30 0
Di, 11.05. 17:00 0
Link zu dieser Seite / Seite empfehlen

Das Wetter in ...